createdAt,value
2019-02-06T00:00:38.367Z,36.97
2019-02-06T00:03:07.038Z,36.63
2019-02-06T00:05:35.757Z,34.57
2019-02-06T00:08:04.099Z,30.47
2019-02-06T00:10:32.446Z,33.37
2019-02-06T00:13:00.794Z,33.07
2019-02-06T00:15:29.223Z,32.87
2019-02-06T00:17:57.565Z,32.63
2019-02-06T00:20:26.233Z,31.10
2019-02-06T00:22:54.639Z,33.60
2019-02-06T00:25:23.013Z,31.07
2019-02-06T00:27:51.320Z,28.83
2019-02-06T00:30:21.464Z,27.93
2019-02-06T00:32:49.790Z,25.27
2019-02-06T00:35:25.604Z,28.33
2019-02-06T00:37:48.035Z,29.57
2019-02-06T00:40:16.304Z,29.27
2019-02-06T00:42:45.365Z,29.00
2019-02-06T00:45:14.038Z,26.43
2019-02-06T00:47:42.388Z,24.30
2019-02-06T00:50:14.142Z,25.97
2019-02-06T00:52:42.418Z,23.73
2019-02-06T00:55:12.095Z,25.47
2019-02-06T00:57:40.362Z,23.87
2019-02-06T01:00:13.521Z,23.93
2019-02-06T01:02:44.506Z,27.10
2019-02-06T01:05:15.095Z,26.70
2019-02-06T01:07:43.373Z,25.60
2019-02-06T01:10:14.329Z,29.23
2019-02-06T01:12:42.692Z,28.80
2019-02-06T01:15:12.139Z,30.93
2019-02-06T01:17:40.482Z,32.33
2019-02-06T01:20:13.703Z,29.13
2019-02-06T01:22:42.124Z,29.50
2019-02-06T01:25:12.982Z,30.77
2019-02-06T01:27:41.320Z,31.50
2019-02-06T01:30:13.247Z,34.17
2019-02-06T01:32:41.509Z,38.40
2019-02-06T01:35:11.997Z,72.43
2019-02-06T01:37:40.287Z,49.23
2019-02-06T01:40:11.336Z,53.90
2019-02-06T01:42:39.674Z,57.07
2019-02-06T01:45:13.368Z,57.93
2019-02-06T01:47:41.711Z,55.60
2019-02-06T01:50:12.172Z,46.80
2019-02-06T01:52:40.460Z,52.43
2019-02-06T01:55:11.028Z,40.57
2019-02-06T01:57:39.368Z,45.00
2019-02-06T02:00:15.924Z,46.23
2019-02-06T02:02:44.184Z,43.33
2019-02-06T02:05:12.716Z,44.30
2019-02-06T02:07:40.989Z,55.07
2019-02-06T02:10:10.384Z,44.20
2019-02-06T02:12:38.640Z,45.73
2019-02-06T02:15:10.136Z,47.70
2019-02-06T02:17:38.415Z,51.07
2019-02-06T02:20:15.305Z,48.77
2019-02-06T02:22:43.556Z,49.20
2019-02-06T02:25:11.818Z,51.73
2019-02-06T02:27:40.087Z,46.83
2019-02-06T02:30:17.318Z,51.27
2019-02-06T02:32:45.655Z,50.57
2019-02-06T02:35:13.897Z,44.13
2019-02-06T02:37:42.222Z,52.60
2019-02-06T02:40:11.494Z,47.90
2019-02-06T02:42:39.839Z,51.17
2019-02-06T02:45:13.471Z,57.43
2019-02-06T02:47:41.810Z,57.00
2019-02-06T02:50:10.815Z,54.03
2019-02-06T02:52:39.084Z,46.93
2019-02-06T02:55:09.408Z,49.00
2019-02-06T02:57:37.724Z,52.60
2019-02-06T03:00:09.748Z,49.93
2019-02-06T03:02:39.652Z,52.87
2019-02-06T03:05:08.420Z,56.57
2019-02-06T03:07:36.691Z,47.87
2019-02-06T03:10:07.492Z,52.90
2019-02-06T03:12:36.162Z,58.07
2019-02-06T03:15:05.957Z,54.30
2019-02-06T03:17:34.302Z,49.47
2019-02-06T03:20:02.592Z,54.03
2019-02-06T03:22:32.839Z,53.47
2019-02-06T03:25:06.400Z,54.17
2019-02-06T03:27:34.722Z,50.17
2019-02-06T03:30:02.981Z,54.03
2019-02-06T03:32:31.293Z,51.60
2019-02-06T03:34:59.532Z,55.67
2019-02-06T03:37:27.816Z,51.30
2019-02-06T03:39:57.081Z,53.30
2019-02-06T03:42:29.219Z,53.93
2019-02-06T03:44:57.506Z,50.53
2019-02-06T03:47:25.787Z,60.40
2019-02-06T03:49:54.419Z,56.13
2019-02-06T03:52:22.866Z,51.03
2019-02-06T03:54:51.124Z,53.57
2019-02-06T03:57:19.401Z,55.93
2019-02-06T03:59:47.754Z,51.83
2019-02-06T04:02:16.087Z,49.37
2019-02-06T04:04:44.437Z,52.10
2019-02-06T04:07:12.980Z,57.13
2019-02-06T04:09:41.306Z,59.00
2019-02-06T04:12:09.558Z,56.27
2019-02-06T04:14:37.828Z,53.17
2019-02-06T04:17:06.278Z,50.13
2019-02-06T04:19:34.550Z,52.90
2019-02-06T04:22:02.819Z,56.60
2019-02-06T04:24:31.072Z,54.83
2019-02-06T04:26:59.319Z,53.80
2019-02-06T04:29:27.587Z,47.03
2019-02-06T04:31:55.851Z,55.73
2019-02-06T04:34:24.123Z,52.70
2019-02-06T04:36:52.376Z,48.57
2019-02-06T04:39:22.367Z,53.70
2019-02-06T04:41:50.633Z,55.87
2019-02-06T04:44:19.023Z,56.77
2019-02-06T04:46:47.308Z,52.93
2019-02-06T04:49:15.579Z,66.93
2019-02-06T04:51:43.840Z,53.67
2019-02-06T04:54:12.180Z,57.43
2019-02-06T04:56:40.596Z,53.17
2019-02-06T04:59:08.943Z,54.23
2019-02-06T05:01:37.174Z,51.87
2019-02-06T05:04:06.370Z,49.07
2019-02-06T05:06:34.619Z,55.93
2019-02-06T05:09:02.947Z,55.93
2019-02-06T05:11:31.214Z,54.17
2019-02-06T05:13:59.562Z,59.43
2019-02-06T05:16:27.945Z,58.97
2019-02-06T05:18:56.240Z,60.83
2019-02-06T05:21:24.564Z,58.20
2019-02-06T05:23:52.832Z,56.87
2019-02-06T05:26:21.100Z,56.67
2019-02-06T05:28:49.436Z,61.93
2019-02-06T05:31:17.699Z,55.07
2019-02-06T05:33:45.951Z,67.43
2019-02-06T05:36:14.215Z,63.03
2019-02-06T05:38:42.487Z,59.07
2019-02-06T05:41:10.725Z,68.47
2019-02-06T05:43:40.624Z,66.87
2019-02-06T05:46:09.167Z,59.80
2019-02-06T05:48:37.502Z,65.77
2019-02-06T05:51:06.479Z,65.90
2019-02-06T05:53:34.754Z,66.20
2019-02-06T05:56:03.008Z,72.70
2019-02-06T05:58:31.358Z,69.97
2019-02-06T06:00:59.721Z,68.37
2019-02-06T06:03:28.163Z,60.80
2019-02-06T06:05:56.424Z,71.27
2019-02-06T06:08:24.771Z,73.97
2019-02-06T06:10:53.030Z,68.27
2019-02-06T06:13:21.396Z,68.93
2019-02-06T06:15:49.748Z,71.47
2019-02-06T06:18:18.132Z,70.30
2019-02-06T06:20:46.469Z,75.37
2019-02-06T06:23:14.729Z,78.63
2019-02-06T06:25:42.999Z,77.17
2019-02-06T06:28:11.279Z,80.43
2019-02-06T06:30:39.530Z,77.80
2019-02-06T06:33:07.776Z,81.27
2019-02-06T06:35:36.552Z,77.47
2019-02-06T06:38:04.815Z,82.93
2019-02-06T06:40:33.160Z,73.70
2019-02-06T06:43:01.513Z,75.10
2019-02-06T06:45:29.937Z,80.53
2019-02-06T06:47:58.507Z,75.83
2019-02-06T06:50:26.850Z,77.87
2019-02-06T06:52:55.099Z,81.13
2019-02-06T06:55:23.841Z,73.93
2019-02-06T06:57:52.076Z,88.80
2019-02-06T07:00:30.987Z,85.67
2019-02-06T07:02:59.315Z,86.47
2019-02-06T07:05:27.596Z,94.47
2019-02-06T07:07:55.864Z,76.70
2019-02-06T07:10:24.497Z,74.40
2019-02-06T07:12:52.761Z,78.23
2019-02-06T07:15:23.827Z,71.80
2019-02-06T07:17:52.080Z,81.77
2019-02-06T07:20:20.429Z,68.10
2019-02-06T07:22:48.669Z,69.07
2019-02-06T07:25:18.655Z,55.40
2019-02-06T07:27:46.980Z,50.93
2019-02-06T07:30:23.619Z,44.90
2019-02-06T07:32:51.913Z,45.27
2019-02-06T07:35:20.187Z,41.73
2019-02-06T07:37:48.449Z,41.70
2019-02-06T07:40:17.044Z,45.43
2019-02-06T07:42:45.296Z,46.80
2019-02-06T07:45:15.778Z,39.90
2019-02-06T07:47:44.035Z,35.03
2019-02-06T07:50:15.559Z,40.33
2019-02-06T07:52:43.891Z,84.37
2019-02-06T07:55:12.522Z,37.13
2019-02-06T07:57:40.783Z,36.10
2019-02-06T08:00:09.042Z,34.57
2019-02-06T08:02:37.295Z,37.67
2019-02-06T08:05:11.860Z,35.47
2019-02-06T08:07:40.104Z,32.77
2019-02-06T08:10:13.996Z,35.50
2019-02-06T08:12:42.260Z,34.03
2019-02-06T08:15:13.603Z,34.90
2019-02-06T08:17:41.916Z,32.03
2019-02-06T08:20:13.508Z,33.13
2019-02-06T08:22:41.835Z,32.53
2019-02-06T08:25:12.530Z,30.83
2019-02-06T08:27:40.931Z,30.10
2019-02-06T08:30:18.485Z,30.63
2019-02-06T08:32:46.749Z,33.77
2019-02-06T08:35:15.099Z,27.77
2019-02-06T08:37:43.355Z,36.63
2019-02-06T08:40:14.651Z,30.07
2019-02-06T08:42:42.907Z,27.73
2019-02-06T08:45:15.892Z,29.93
2019-02-06T08:47:44.126Z,29.20
2019-02-06T08:50:22.036Z,28.37
2019-02-06T08:52:50.555Z,25.10
2019-02-06T08:55:20.843Z,28.23
2019-02-06T08:57:49.108Z,26.33
2019-02-06T09:00:28.655Z,25.30
2019-02-06T09:02:56.919Z,23.93
2019-02-06T09:05:25.541Z,24.97
2019-02-06T09:07:53.775Z,22.43
2019-02-06T09:10:24.657Z,23.50
2019-02-06T09:12:53.424Z,23.27
2019-02-06T09:15:21.692Z,21.43
2019-02-06T09:17:50.023Z,21.87
2019-02-06T09:20:23.394Z,24.17
2019-02-06T09:22:51.718Z,19.80
2019-02-06T09:25:21.531Z,20.83
2019-02-06T09:27:49.776Z,21.23
2019-02-06T09:30:20.065Z,18.07
2019-02-06T09:32:48.499Z,21.53
2019-02-06T09:35:16.767Z,19.47
2019-02-06T09:37:45.310Z,16.33
2019-02-06T09:40:16.465Z,16.90
2019-02-06T09:42:44.781Z,19.00
2019-02-06T09:45:13.980Z,18.63
2019-02-06T09:47:42.256Z,16.47
2019-02-06T09:50:16.359Z,15.00
2019-02-06T09:52:44.891Z,15.77
2019-02-06T09:55:13.138Z,20.20
2019-02-06T09:57:41.408Z,18.87
2019-02-06T10:00:15.805Z,15.40
2019-02-06T10:02:44.076Z,15.27
2019-02-06T10:05:12.312Z,15.33
2019-02-06T10:07:40.865Z,14.13
2019-02-06T10:10:14.780Z,17.17
2019-02-06T10:12:43.151Z,13.27
2019-02-06T10:15:19.789Z,15.73
2019-02-06T10:17:48.306Z,16.47
2019-02-06T10:20:19.739Z,15.93
2019-02-06T10:22:48.008Z,15.73
2019-02-06T10:25:16.268Z,17.83
2019-02-06T10:27:44.535Z,15.07
2019-02-06T10:30:27.274Z,14.20
2019-02-06T10:32:55.817Z,15.23
2019-02-06T10:35:24.149Z,14.63
2019-02-06T10:37:52.495Z,14.00
2019-02-06T10:40:20.830Z,19.53
2019-02-06T10:42:49.155Z,18.97
2019-02-06T10:45:20.912Z,16.20
2019-02-06T10:47:48.968Z,12.83
2019-02-06T10:50:20.428Z,14.63
2019-02-06T10:52:48.758Z,13.70
2019-02-06T10:55:17.080Z,13.50
2019-02-06T10:57:45.408Z,15.40
2019-02-06T11:00:29.871Z,16.47
2019-02-06T11:02:58.362Z,11.83
2019-02-06T11:05:26.635Z,11.17
2019-02-06T11:07:54.899Z,14.53
2019-02-06T11:10:25.057Z,14.40
2019-02-06T11:12:53.402Z,14.47
2019-02-06T11:15:21.658Z,15.87
2019-02-06T11:17:50.466Z,15.80
2019-02-06T11:20:21.490Z,14.97
2019-02-06T11:22:49.744Z,14.07
2019-02-06T11:25:18.060Z,12.37
2019-02-06T11:27:46.308Z,12.03
2019-02-06T11:30:17.191Z,14.57
2019-02-06T11:32:45.462Z,14.87
2019-02-06T11:35:13.886Z,12.87
2019-02-06T11:37:42.155Z,16.00
2019-02-06T11:40:21.130Z,12.10
2019-02-06T11:42:49.395Z,13.20
2019-02-06T11:45:22.755Z,13.33
2019-02-06T11:47:51.095Z,16.43
2019-02-06T11:50:22.623Z,14.07
2019-02-06T11:52:51.938Z,13.70
2019-02-06T11:55:22.902Z,13.93
2019-02-06T11:57:51.235Z,11.80
2019-02-06T12:00:25.691Z,14.33
2019-02-06T12:02:53.967Z,9.37
2019-02-06T12:05:22.235Z,12.17
2019-02-06T12:07:50.507Z,11.53
2019-02-06T12:10:19.712Z,14.47
2019-02-06T12:12:48.065Z,15.43
2019-02-06T12:15:17.989Z,13.63
2019-02-06T12:17:46.379Z,16.63
2019-02-06T12:20:17.702Z,14.03
2019-02-06T12:22:45.973Z,17.13
2019-02-06T12:25:15.967Z,13.40
2019-02-06T12:27:44.660Z,14.00
2019-02-06T12:30:19.207Z,13.50
2019-02-06T12:32:52.152Z,14.53
2019-02-06T12:35:17.456Z,14.53
2019-02-06T12:37:45.720Z,19.20
2019-02-06T12:40:21.735Z,17.60
2019-02-06T12:42:44.494Z,19.67
2019-02-06T12:45:17.714Z,17.73
2019-02-06T12:47:46.013Z,19.73
2019-02-06T12:50:19.696Z,21.67
2019-02-06T12:52:47.954Z,17.83
2019-02-06T12:55:36.620Z,21.93
2019-02-06T12:58:05.812Z,21.97
2019-02-06T13:00:36.852Z,23.10
2019-02-06T13:03:05.197Z,25.83
2019-02-06T13:05:33.457Z,20.73
2019-02-06T13:08:01.710Z,19.07
2019-02-06T13:10:33.967Z,22.60
2019-02-06T13:12:59.963Z,26.67
2019-02-06T13:15:28.240Z,28.10
2019-02-06T13:17:56.556Z,26.30
2019-02-06T13:20:29.993Z,23.03
2019-02-06T13:22:58.253Z,22.93
2019-02-06T13:25:26.671Z,24.63
2019-02-06T13:27:54.931Z,24.37
2019-02-06T13:30:28.297Z,23.27
2019-02-06T13:32:56.582Z,24.40
2019-02-06T13:35:24.928Z,26.00
2019-02-06T13:37:53.276Z,45.63
2019-02-06T13:40:27.813Z,27.27
2019-02-06T13:42:56.871Z,30.73
2019-02-06T13:45:33.605Z,27.53
2019-02-06T13:48:01.952Z,25.33
2019-02-06T13:50:30.367Z,24.83
2019-02-06T13:52:58.622Z,28.23
2019-02-06T13:55:27.083Z,27.00
2019-02-06T13:57:55.417Z,34.50
2019-02-06T14:00:32.383Z,30.20
2019-02-06T14:03:00.874Z,27.63
2019-02-06T14:05:30.382Z,26.60
2019-02-06T14:08:00.784Z,23.83
2019-02-06T14:10:30.391Z,25.67
2019-02-06T14:12:58.928Z,30.07
2019-02-06T14:15:32.880Z,23.57
2019-02-06T14:18:01.139Z,28.37
2019-02-06T14:20:29.408Z,20.43
2019-02-06T14:23:04.022Z,23.90
2019-02-06T14:25:35.630Z,27.10
2019-02-06T14:28:15.747Z,24.30
2019-02-06T14:30:47.412Z,24.67
2019-02-06T14:33:21.840Z,26.70
2019-02-06T14:36:01.863Z,26.93
2019-02-06T14:38:39.155Z,26.10
2019-02-06T14:41:13.434Z,24.40
2019-02-06T14:43:47.486Z,22.77
2019-02-06T14:46:43.086Z,19.77
2019-02-06T14:49:17.254Z,21.43
2019-02-06T14:51:54.549Z,22.17
2019-02-06T14:54:26.150Z,18.30
2019-02-06T14:57:13.992Z,23.03
2019-02-06T14:59:57.382Z,19.73
2019-02-06T15:02:51.300Z,19.87
2019-02-06T15:05:44.857Z,15.23
2019-02-06T15:08:22.158Z,17.80
2019-02-06T15:10:56.672Z,17.73
2019-02-06T15:13:46.171Z,19.37
2019-02-06T15:16:35.479Z,19.77
2019-02-06T15:19:18.523Z,19.73
2019-02-06T15:21:53.067Z,19.77
2019-02-06T15:24:53.365Z,15.03
2019-02-06T15:27:37.121Z,18.40
2019-02-06T15:30:20.783Z,17.47
2019-02-06T15:33:10.180Z,16.13
2019-02-06T15:35:47.874Z,15.30
2019-02-06T15:38:31.164Z,17.87
2019-02-06T15:41:05.868Z,17.30
2019-02-06T15:43:46.617Z,16.43
2019-02-06T15:46:52.753Z,12.53
2019-02-06T15:49:33.136Z,13.33
2019-02-06T15:52:10.412Z,16.10
2019-02-06T15:54:47.994Z,17.03
2019-02-06T15:57:25.404Z,13.53
2019-02-06T16:00:08.830Z,10.47
2019-02-06T16:02:58.802Z,20.43
2019-02-06T16:05:56.134Z,11.33
2019-02-06T16:08:33.478Z,10.73
2019-02-06T16:11:21.492Z,12.73
2019-02-06T16:14:02.027Z,12.33
2019-02-06T16:16:55.850Z,11.20
2019-02-06T16:19:36.309Z,10.13
2019-02-06T16:22:10.781Z,14.77
2019-02-06T16:24:58.620Z,12.40
2019-02-06T16:27:30.137Z,12.00
2019-02-06T16:30:31.833Z,9.83
2019-02-06T16:33:18.272Z,12.30
2019-02-06T16:35:55.558Z,13.47
2019-02-06T16:38:35.542Z,12.50
2019-02-06T16:41:21.851Z,17.37
2019-02-06T16:43:58.968Z,13.90
2019-02-06T16:46:39.301Z,13.73
2019-02-06T16:49:19.621Z,14.53
2019-02-06T16:51:59.992Z,11.60
2019-02-06T16:54:47.753Z,9.47
2019-02-06T16:57:30.982Z,13.27
2019-02-06T17:00:11.282Z,14.63
2019-02-06T17:03:06.514Z,8.77
2019-02-06T17:05:43.715Z,8.57
2019-02-06T17:08:32.844Z,11.13
2019-02-06T17:11:10.174Z,12.33
2019-02-06T17:14:03.879Z,9.07
2019-02-06T17:16:55.759Z,16.93
2019-02-06T17:19:32.944Z,12.17
2019-02-06T17:22:07.363Z,11.10
2019-02-06T17:25:05.376Z,11.23
2019-02-06T17:27:51.655Z,17.50
2019-02-06T17:30:34.255Z,14.53
2019-02-06T17:33:34.256Z,16.90
2019-02-06T17:36:05.847Z,15.47
2019-02-06T17:38:37.340Z,14.37
2019-02-06T17:41:08.875Z,15.80
2019-02-06T17:43:50.228Z,20.13
2019-02-06T17:46:38.519Z,18.13
2019-02-06T17:49:36.922Z,13.37
2019-02-06T17:52:17.523Z,16.10
2019-02-06T17:55:21.386Z,15.17
2019-02-06T17:57:51.180Z,13.13
2019-02-06T18:00:32.030Z,16.60
2019-02-06T18:03:06.535Z,12.90
2019-02-06T18:05:34.789Z,16.20
2019-02-06T18:08:03.336Z,15.20
2019-02-06T18:10:31.581Z,12.10
2019-02-06T18:12:59.897Z,14.63
2019-02-06T18:15:28.228Z,11.97
2019-02-06T18:17:59.752Z,11.97
2019-02-06T18:20:28.030Z,10.37
2019-02-06T18:22:56.428Z,13.30
2019-02-06T18:25:24.764Z,10.80
2019-02-06T18:27:53.039Z,11.43
2019-02-06T18:30:26.055Z,10.10
2019-02-06T18:32:54.951Z,20.60
2019-02-06T18:35:23.283Z,11.50
2019-02-06T18:37:51.822Z,11.03
2019-02-06T18:40:24.592Z,11.10
2019-02-06T18:42:53.243Z,10.47
2019-02-06T18:45:22.576Z,11.33
2019-02-06T18:47:53.891Z,14.83
2019-02-06T18:50:30.954Z,10.63
2019-02-06T18:52:58.363Z,14.60
2019-02-06T18:55:26.697Z,12.97
2019-02-06T18:57:55.148Z,14.40
2019-02-06T19:00:32.422Z,18.03
2019-02-06T19:03:03.466Z,10.60
2019-02-06T19:05:34.695Z,12.47
2019-02-06T19:08:03.127Z,11.70
2019-02-06T19:10:31.558Z,10.33
2019-02-06T19:12:59.872Z,16.23
2019-02-06T19:15:28.594Z,11.23
2019-02-06T19:17:56.975Z,15.43
2019-02-06T19:20:25.316Z,15.93
2019-02-06T19:22:53.576Z,18.43
2019-02-06T19:25:23.890Z,16.83
2019-02-06T19:27:51.877Z,13.00
2019-02-06T19:30:28.806Z,15.13
2019-02-06T19:32:57.445Z,14.57
2019-02-06T19:35:25.787Z,15.37
2019-02-06T19:37:54.356Z,12.33
2019-02-06T19:40:22.763Z,13.60
2019-02-06T19:42:59.094Z,16.65
2019-02-06T19:45:22.143Z,14.67
2019-02-06T19:47:51.710Z,15.87
2019-02-06T19:50:22.954Z,14.27
2019-02-06T19:52:51.302Z,13.10
2019-02-06T19:55:19.629Z,12.50
2019-02-06T19:57:47.957Z,15.23
2019-02-06T20:00:22.272Z,16.33
2019-02-06T20:02:50.524Z,16.07
2019-02-06T20:05:19.610Z,15.87
2019-02-06T20:07:48.234Z,14.73
2019-02-06T20:10:34.106Z,20.08
2019-02-06T20:13:10.595Z,16.27
2019-02-06T20:15:32.773Z,15.67
2019-02-06T20:18:01.111Z,17.00
2019-02-06T20:20:30.046Z,17.10
2019-02-06T20:22:58.364Z,16.50
2019-02-06T20:25:26.784Z,17.33
2019-02-06T20:27:55.167Z,16.07
2019-02-06T20:30:30.584Z,16.87
2019-02-06T20:32:58.926Z,15.77
2019-02-06T20:35:27.428Z,15.37
2019-02-06T20:37:56.056Z,17.17
2019-02-06T20:40:30.303Z,13.97
2019-02-06T20:42:58.742Z,15.20
2019-02-06T20:45:27.200Z,19.73
2019-02-06T20:47:55.708Z,17.63
2019-02-06T20:50:34.343Z,15.60
2019-02-06T20:53:04.011Z,16.23
2019-02-06T20:55:32.339Z,19.20
2019-02-06T20:58:00.625Z,16.90
2019-02-06T21:00:41.034Z,18.50
2019-02-06T21:03:09.371Z,19.07
2019-02-06T21:05:38.373Z,18.07
2019-02-06T21:08:06.708Z,18.87
2019-02-06T21:10:35.799Z,17.20
2019-02-06T21:13:04.608Z,19.93
2019-02-06T21:15:33.146Z,19.63
2019-02-06T21:18:01.501Z,19.20
2019-02-06T21:20:29.762Z,19.83
2019-02-06T21:22:58.395Z,21.03
2019-02-06T21:25:27.058Z,17.33
2019-02-06T21:27:55.319Z,16.33
2019-02-06T21:30:38.535Z,18.90
2019-02-06T21:33:06.881Z,16.47
2019-02-06T21:35:35.491Z,17.27
2019-02-06T21:38:03.987Z,22.63
2019-02-06T21:40:36.830Z,20.43
2019-02-06T21:43:05.706Z,16.83
2019-02-06T21:45:34.053Z,18.33
2019-02-06T21:48:03.884Z,17.43
2019-02-06T21:50:32.176Z,20.33
2019-02-06T21:53:00.435Z,18.23
2019-02-06T21:55:31.671Z,20.65
2019-02-06T21:57:59.989Z,18.63
2019-02-06T22:00:33.921Z,20.53
2019-02-06T22:03:02.251Z,17.77
2019-02-06T22:05:30.923Z,17.93
2019-02-06T22:07:59.302Z,18.97
2019-02-06T22:10:27.625Z,21.37
2019-02-06T22:12:55.965Z,19.07
2019-02-06T22:15:27.012Z,18.53
2019-02-06T22:17:55.275Z,20.63
2019-02-06T22:20:23.921Z,17.30
2019-02-06T22:22:52.179Z,20.97
2019-02-06T22:25:20.436Z,20.00
2019-02-06T22:27:50.656Z,23.33
2019-02-06T22:30:23.636Z,21.67
2019-02-06T22:32:59.380Z,18.90
2019-02-06T22:35:27.696Z,20.10
2019-02-06T22:37:55.976Z,21.00
2019-02-06T22:40:26.702Z,23.67
2019-02-06T22:42:55.047Z,19.53
2019-02-06T22:45:25.975Z,18.80
2019-02-06T22:47:54.308Z,21.73
2019-02-06T22:50:27.479Z,19.95
2019-02-06T22:52:55.755Z,22.40
2019-02-06T22:55:24.155Z,20.93
2019-02-06T22:57:52.423Z,19.23
2019-02-06T23:00:43.148Z,22.60
2019-02-06T23:03:11.502Z,19.07
2019-02-06T23:05:39.827Z,17.90
2019-02-06T23:08:08.725Z,19.70
2019-02-06T23:10:37.008Z,17.97
2019-02-06T23:13:06.035Z,22.53
2019-02-06T23:15:34.742Z,21.40
2019-02-06T23:18:03.017Z,22.33
2019-02-06T23:20:31.366Z,20.73
2019-02-06T23:22:59.691Z,21.03
2019-02-06T23:25:28.050Z,25.37
2019-02-06T23:27:56.319Z,22.13
2019-02-06T23:30:24.583Z,20.53
2019-02-06T23:32:53.754Z,24.17
2019-02-06T23:35:22.061Z,23.00
2019-02-06T23:37:50.336Z,21.07
2019-02-06T23:40:18.599Z,19.07
2019-02-06T23:42:46.927Z,24.47
2019-02-06T23:45:15.189Z,24.70
2019-02-06T23:47:43.720Z,19.37
2019-02-06T23:50:14.179Z,22.27
2019-02-06T23:52:42.432Z,20.67
2019-02-06T23:55:10.691Z,24.03
2019-02-06T23:57:38.965Z,26.90
